createdAt,value
2018-11-23T00:00:55.496Z,1.83
2018-11-23T00:03:25.783Z,1.83
2018-11-23T00:05:56.032Z,1.69
2018-11-23T00:08:25.629Z,1.72
2018-11-23T00:10:55.469Z,1.71
2018-11-23T00:13:25.297Z,1.73
2018-11-23T00:15:54.765Z,1.83
2018-11-23T00:18:24.224Z,1.91
2018-11-23T00:20:54.060Z,1.73
2018-11-23T00:23:23.896Z,1.68
2018-11-23T00:25:54.260Z,1.86
2018-11-23T00:28:24.163Z,1.86
2018-11-23T00:30:53.668Z,1.83
2018-11-23T00:33:23.280Z,1.80
2018-11-23T00:35:52.796Z,1.94
2018-11-23T00:38:22.355Z,2.02
2018-11-23T00:40:52.172Z,2.00
2018-11-23T00:43:21.675Z,2.31
2018-11-23T00:45:51.486Z,2.22
2018-11-23T00:48:20.984Z,2.02
2018-11-23T00:50:50.791Z,2.10
2018-11-23T00:53:20.695Z,2.13
2018-11-23T00:55:50.475Z,2.16
2018-11-23T00:58:20.865Z,2.22
2018-11-23T01:00:50.971Z,2.24
2018-11-23T01:03:20.888Z,1.93
2018-11-23T01:05:50.353Z,2.12
2018-11-23T01:08:19.874Z,1.96
2018-11-23T01:10:49.791Z,1.87
2018-11-23T01:13:19.403Z,1.93
2018-11-23T01:15:49.291Z,2.08
2018-11-23T01:18:19.167Z,1.95
2018-11-23T01:20:48.559Z,1.78
2018-11-23T01:23:18.119Z,1.89
2018-11-23T01:25:48.279Z,1.94
2018-11-23T01:28:18.069Z,1.80
2018-11-23T01:30:47.482Z,1.85
2018-11-23T01:33:16.939Z,2.03
2018-11-23T01:35:46.347Z,2.21
2018-11-23T01:38:15.837Z,2.32
2018-11-23T01:40:45.631Z,2.07
2018-11-23T01:43:15.409Z,1.96
2018-11-23T01:45:45.182Z,2.08
2018-11-23T01:48:14.667Z,1.90
2018-11-23T01:50:44.227Z,1.90
2018-11-23T01:53:13.875Z,2.10
2018-11-23T01:55:43.275Z,2.23
2018-11-23T01:58:12.815Z,2.26
2018-11-23T02:00:42.338Z,2.31
2018-11-23T02:03:11.818Z,2.39
2018-11-23T02:05:41.274Z,2.48
2018-11-23T02:08:11.077Z,2.21
2018-11-23T02:10:40.933Z,2.31
2018-11-23T02:13:10.346Z,2.26
2018-11-23T02:15:39.775Z,2.37
2018-11-23T02:18:09.224Z,2.40
2018-11-23T02:20:39.047Z,2.35
2018-11-23T02:23:08.993Z,2.14
2018-11-23T02:25:39.295Z,2.30
2018-11-23T02:28:08.807Z,2.24
2018-11-23T02:30:38.615Z,2.24
2018-11-23T02:33:08.148Z,2.23
2018-11-23T02:35:37.528Z,2.24
2018-11-23T02:38:07.457Z,2.30
2018-11-23T02:40:37.366Z,2.37
2018-11-23T02:43:06.870Z,2.27
2018-11-23T02:45:36.378Z,2.29
2018-11-23T02:48:06.554Z,2.27
2018-11-23T02:50:36.423Z,2.23
2018-11-23T02:53:06.095Z,2.34
2018-11-23T02:55:35.618Z,2.32
2018-11-23T02:58:05.094Z,2.34
2018-11-23T03:00:34.938Z,2.34
2018-11-23T03:03:04.534Z,2.27
2018-11-23T03:05:34.379Z,2.46
2018-11-23T03:08:04.248Z,2.40
2018-11-23T03:10:33.678Z,2.39
2018-11-23T03:13:03.601Z,2.51
2018-11-23T03:15:33.411Z,2.21
2018-11-23T03:18:03.196Z,2.26
2018-11-23T03:20:32.590Z,2.19
2018-11-23T03:23:02.365Z,2.28
2018-11-23T03:25:31.884Z,2.39
2018-11-23T03:28:01.704Z,2.47
2018-11-23T03:30:31.104Z,2.52
2018-11-23T03:33:00.919Z,2.56
2018-11-23T03:35:30.815Z,2.67
2018-11-23T03:38:00.256Z,2.67
2018-11-23T03:40:30.140Z,2.71
2018-11-23T03:42:59.947Z,2.73
2018-11-23T03:45:29.797Z,2.59
2018-11-23T03:47:59.327Z,2.56
2018-11-23T03:50:29.135Z,2.58
2018-11-23T03:52:58.914Z,2.68
2018-11-23T03:55:28.434Z,2.74
2018-11-23T03:57:58.130Z,2.71
2018-11-23T04:00:27.986Z,2.71
2018-11-23T04:02:57.983Z,2.68
2018-11-23T04:05:28.129Z,2.69
2018-11-23T04:07:58.151Z,2.82
2018-11-23T04:10:28.063Z,2.78
2018-11-23T04:12:58.033Z,2.79
2018-11-23T04:15:28.043Z,2.68
2018-11-23T04:17:57.982Z,2.73
2018-11-23T04:20:27.498Z,2.86
2018-11-23T04:22:57.827Z,2.88
2018-11-23T04:25:27.390Z,2.96
2018-11-23T04:27:57.277Z,2.90
2018-11-23T04:30:28.020Z,2.78
2018-11-23T04:32:58.255Z,2.85
2018-11-23T04:35:28.391Z,2.96
2018-11-23T04:37:58.607Z,3.02
2018-11-23T04:40:38.102Z,2.94
2018-11-23T04:43:08.059Z,2.97
2018-11-23T04:45:37.977Z,2.98
2018-11-23T04:48:08.182Z,3.09
2018-11-23T04:50:38.046Z,3.01
2018-11-23T04:53:07.912Z,2.96
2018-11-23T04:55:38.114Z,3.03
2018-11-23T04:58:16.598Z,3.04
2018-11-23T05:00:46.954Z,3.10
2018-11-23T05:03:16.673Z,3.07
2018-11-23T05:06:01.490Z,2.85
2018-11-23T05:08:31.021Z,2.88
2018-11-23T05:11:01.043Z,2.78
2018-11-23T05:13:30.563Z,2.58
2018-11-23T05:16:00.254Z,2.65
2018-11-23T05:18:30.121Z,2.90
2018-11-23T05:20:59.794Z,3.00
2018-11-23T05:23:29.341Z,3.08
2018-11-23T05:26:02.080Z,2.27
2018-11-23T05:28:35.166Z,2.68
2018-11-23T05:31:05.031Z,2.66
2018-11-23T05:33:34.976Z,2.57
2018-11-23T05:36:06.836Z,2.51
2018-11-23T05:38:36.417Z,2.56
2018-11-23T05:41:05.993Z,2.64
2018-11-23T05:43:35.985Z,2.59
2018-11-23T05:46:06.250Z,2.60
2018-11-23T05:48:36.098Z,2.59
2018-11-23T05:51:06.298Z,2.69
2018-11-23T05:53:35.815Z,2.76
2018-11-23T05:56:06.109Z,2.82
2018-11-23T05:58:36.137Z,2.74
2018-11-23T06:01:05.949Z,2.70
2018-11-23T06:03:36.463Z,2.86
2018-11-23T06:06:06.781Z,2.94
2018-11-23T06:08:36.981Z,2.83
2018-11-23T06:11:06.629Z,2.93
2018-11-23T06:13:36.469Z,2.95
2018-11-23T06:16:06.492Z,2.93
2018-11-23T06:18:36.350Z,2.87
2018-11-23T06:21:06.039Z,2.94
2018-11-23T06:23:35.437Z,3.00
2018-11-23T06:26:14.304Z,3.01
2018-11-23T06:28:44.146Z,3.07
2018-11-23T06:31:14.725Z,3.11
2018-11-23T06:33:47.196Z,3.18
2018-11-23T06:36:17.015Z,3.04
2018-11-23T06:38:46.853Z,3.04
2018-11-23T06:41:16.315Z,3.18
2018-11-23T06:43:46.972Z,3.16
2018-11-23T06:46:16.699Z,3.27
2018-11-23T06:48:46.529Z,3.20
2018-11-23T06:51:16.456Z,3.29
2018-11-23T06:53:46.744Z,3.30
2018-11-23T06:56:16.669Z,3.08
2018-11-23T06:58:46.162Z,3.08
2018-11-23T07:01:16.036Z,3.15
2018-11-23T07:03:45.752Z,3.08
2018-11-23T07:06:16.056Z,3.06
2018-11-23T07:08:52.274Z,3.18
2018-11-23T07:11:15.801Z,3.21
2018-11-23T07:13:45.256Z,3.17
2018-11-23T07:16:15.128Z,3.20
2018-11-23T07:18:45.116Z,3.17
2018-11-23T07:21:21.199Z,3.29
2018-11-23T07:23:44.942Z,3.50
2018-11-23T07:26:14.729Z,3.52
2018-11-23T07:28:43.880Z,3.61
2018-11-23T07:31:13.356Z,3.56
2018-11-23T07:33:42.847Z,3.41
2018-11-23T07:36:12.706Z,3.41
2018-11-23T07:38:42.211Z,3.44
2018-11-23T07:41:28.791Z,3.24
2018-11-23T07:43:58.205Z,3.31
2018-11-23T07:46:28.084Z,3.27
2018-11-23T07:48:57.565Z,3.47
2018-11-23T07:51:27.688Z,3.46
2018-11-23T07:53:57.464Z,3.52
2018-11-23T07:56:27.228Z,3.55
2018-11-23T07:58:56.976Z,3.46
2018-11-23T08:01:26.736Z,3.52
2018-11-23T08:03:56.550Z,3.55
2018-11-23T08:06:26.314Z,3.55
2018-11-23T08:08:56.091Z,3.73
2018-11-23T08:11:25.928Z,3.84
2018-11-23T08:13:55.705Z,3.91
2018-11-23T08:16:25.480Z,3.74
2018-11-23T08:18:55.271Z,3.83
2018-11-23T08:21:25.003Z,3.83
2018-11-23T08:23:54.738Z,3.92
2018-11-23T08:26:24.463Z,3.96
2018-11-23T08:28:54.187Z,3.79
2018-11-23T08:31:23.947Z,3.82
2018-11-23T08:33:53.615Z,3.64
2018-11-23T08:36:23.021Z,3.91
2018-11-23T08:38:52.888Z,3.86
2018-11-23T08:41:22.301Z,3.92
2018-11-23T08:43:52.496Z,4.02
2018-11-23T08:46:22.748Z,4.15
2018-11-23T08:48:52.762Z,4.18
2018-11-23T08:51:22.219Z,3.94
2018-11-23T08:53:52.028Z,3.88
2018-11-23T08:56:21.851Z,3.90
2018-11-23T08:58:51.399Z,4.15
2018-11-23T09:01:21.265Z,4.16
2018-11-23T09:03:51.081Z,4.13
2018-11-23T09:06:20.899Z,4.23
2018-11-23T09:08:50.827Z,4.36
2018-11-23T09:11:20.662Z,4.48
2018-11-23T09:13:50.519Z,4.61
2018-11-23T09:16:20.267Z,4.53
2018-11-23T09:18:50.468Z,4.60
2018-11-23T09:21:20.380Z,4.63
2018-11-23T09:23:50.189Z,4.69
2018-11-23T09:26:20.424Z,4.80
2018-11-23T09:28:50.165Z,4.52
2018-11-23T09:31:19.620Z,4.86
2018-11-23T09:33:49.088Z,5.00
2018-11-23T09:36:18.896Z,5.02
2018-11-23T09:38:48.627Z,4.90
2018-11-23T09:41:18.050Z,5.00
2018-11-23T09:43:47.961Z,5.06
2018-11-23T09:46:17.767Z,5.17
2018-11-23T09:48:47.529Z,5.05
2018-11-23T09:51:17.431Z,4.93
2018-11-23T09:53:47.221Z,4.89
2018-11-23T09:56:17.048Z,4.90
2018-11-23T09:58:47.030Z,5.03
2018-11-23T10:01:16.838Z,5.01
2018-11-23T10:03:46.688Z,5.04
2018-11-23T10:06:16.519Z,4.93
2018-11-23T10:08:45.966Z,4.93
2018-11-23T10:11:15.871Z,4.83
2018-11-23T10:13:45.632Z,4.76
2018-11-23T10:16:15.619Z,4.88
2018-11-23T10:18:45.538Z,4.97
2018-11-23T10:21:15.567Z,4.73
2018-11-23T10:23:45.411Z,4.84
2018-11-23T10:26:14.826Z,4.88
2018-11-23T10:28:44.618Z,4.98
2018-11-23T10:31:14.111Z,5.00
2018-11-23T10:33:43.859Z,4.99
2018-11-23T10:36:13.706Z,5.13
2018-11-23T10:38:43.570Z,5.14
2018-11-23T10:41:13.442Z,5.22
2018-11-23T10:43:42.883Z,5.20
2018-11-23T10:46:12.613Z,5.22
2018-11-23T10:48:42.402Z,5.38
2018-11-23T10:51:11.825Z,5.38
2018-11-23T10:53:41.674Z,5.50
2018-11-23T10:56:11.502Z,5.57
2018-11-23T10:58:41.382Z,5.16
2018-11-23T11:01:16.347Z,5.02
2018-11-23T11:03:51.133Z,5.30
2018-11-23T11:06:25.830Z,5.17
2018-11-23T11:08:55.825Z,5.46
2018-11-23T11:11:25.416Z,5.71
2018-11-23T11:13:54.794Z,5.66
2018-11-23T11:16:24.652Z,5.75
2018-11-23T11:18:54.506Z,5.80
2018-11-23T11:21:24.310Z,5.92
2018-11-23T11:23:54.052Z,5.97
2018-11-23T11:26:23.834Z,6.08
2018-11-23T11:28:53.698Z,6.11
2018-11-23T11:31:23.480Z,6.20
2018-11-23T11:33:53.438Z,6.28
2018-11-23T11:36:23.150Z,6.08
2018-11-23T11:38:52.942Z,6.06
2018-11-23T11:41:22.646Z,5.93
2018-11-23T11:43:52.706Z,6.00
2018-11-23T11:46:22.434Z,6.08
2018-11-23T11:48:51.892Z,6.17
2018-11-23T11:51:21.678Z,6.31
2018-11-23T11:53:51.439Z,6.29
2018-11-23T11:56:20.936Z,6.31
2018-11-23T11:58:50.848Z,6.44
2018-11-23T12:01:21.355Z,6.46
2018-11-23T12:03:50.870Z,6.35
2018-11-23T12:06:20.706Z,6.36
2018-11-23T12:08:50.574Z,6.37
2018-11-23T12:11:20.446Z,6.11
2018-11-23T12:13:50.296Z,6.28
2018-11-23T12:16:19.711Z,6.10
2018-11-23T12:18:49.548Z,6.23
2018-11-23T12:21:19.281Z,6.25
2018-11-23T12:23:49.020Z,6.29
2018-11-23T12:26:18.379Z,6.07
2018-11-23T12:28:48.207Z,5.75
2018-11-23T12:31:17.680Z,5.98
2018-11-23T12:33:47.826Z,6.04
2018-11-23T12:36:17.594Z,5.96
2018-11-23T12:38:47.037Z,5.80
2018-11-23T12:41:16.526Z,6.05
2018-11-23T12:43:46.389Z,6.02
2018-11-23T12:46:16.237Z,6.10
2018-11-23T12:48:46.147Z,6.01
2018-11-23T12:51:15.917Z,6.08
2018-11-23T12:53:45.674Z,6.09
2018-11-23T12:56:15.131Z,5.98
2018-11-23T12:58:44.585Z,6.00
2018-11-23T13:01:14.314Z,6.08
2018-11-23T13:03:44.111Z,5.93
2018-11-23T13:06:13.661Z,5.77
2018-11-23T13:08:43.108Z,5.97
2018-11-23T13:11:12.597Z,5.83
2018-11-23T13:13:42.834Z,5.92
2018-11-23T13:16:12.283Z,5.87
2018-11-23T13:18:41.745Z,5.87
2018-11-23T13:21:11.557Z,5.96
2018-11-23T13:23:41.385Z,6.03
2018-11-23T13:26:11.199Z,6.04
2018-11-23T13:28:41.006Z,6.04
2018-11-23T13:31:11.367Z,5.92
2018-11-23T13:33:41.153Z,5.99
2018-11-23T13:36:10.970Z,5.95
2018-11-23T13:38:40.726Z,5.89
2018-11-23T13:41:10.511Z,5.93
2018-11-23T13:43:40.321Z,5.90
2018-11-23T13:46:10.118Z,5.86
2018-11-23T13:48:39.905Z,5.75
2018-11-23T13:51:10.412Z,5.86
2018-11-23T13:53:40.317Z,5.94
2018-11-23T13:56:11.065Z,5.98
2018-11-23T13:58:41.073Z,6.05
2018-11-23T14:01:10.933Z,5.95
2018-11-23T14:03:40.755Z,5.86
2018-11-23T14:06:10.559Z,5.73
2018-11-23T14:08:40.407Z,5.69
2018-11-23T14:11:10.231Z,5.80
2018-11-23T14:13:40.520Z,5.81
2018-11-23T14:16:10.350Z,5.73
2018-11-23T14:18:40.204Z,5.82
2018-11-23T14:21:09.925Z,5.91
2018-11-23T14:23:40.068Z,5.93
2018-11-23T14:26:09.939Z,5.82
2018-11-23T14:28:39.757Z,5.70
2018-11-23T14:31:09.545Z,5.72
2018-11-23T14:33:39.357Z,5.80
2018-11-23T14:36:08.857Z,5.76
2018-11-23T14:38:39.105Z,5.81
2018-11-23T14:41:09.601Z,5.79
2018-11-23T14:43:39.366Z,5.79
2018-11-23T14:46:09.243Z,5.75
2018-11-23T14:48:38.678Z,5.77
2018-11-23T14:51:08.553Z,5.75
2018-11-23T14:53:38.465Z,5.71
2018-11-23T14:56:08.301Z,5.58
2018-11-23T14:58:38.154Z,5.47
2018-11-23T15:01:08.082Z,5.37
2018-11-23T15:03:40.129Z,5.33
2018-11-23T15:06:10.728Z,5.26
2018-11-23T15:08:40.766Z,5.13
2018-11-23T15:11:10.973Z,5.02
2018-11-23T15:13:40.949Z,4.98
2018-11-23T15:16:10.568Z,4.88
2018-11-23T15:18:40.096Z,4.83
2018-11-23T15:21:11.136Z,4.63
2018-11-23T15:23:40.720Z,4.50
2018-11-23T15:26:10.162Z,4.40
2018-11-23T15:28:39.834Z,4.24
2018-11-23T15:31:09.596Z,4.11
2018-11-23T15:33:39.417Z,4.08
2018-11-23T15:36:08.832Z,3.97
2018-11-23T15:38:39.089Z,3.85
2018-11-23T15:41:08.518Z,3.61
2018-11-23T15:43:38.323Z,3.52
2018-11-23T15:46:08.174Z,3.49
2018-11-23T15:48:37.661Z,3.47
2018-11-23T15:51:08.421Z,3.41
2018-11-23T15:53:38.359Z,3.43
2018-11-23T15:56:08.290Z,3.34
2018-11-23T15:58:37.742Z,3.26
2018-11-23T16:01:07.609Z,3.12
2018-11-23T16:03:37.358Z,3.10
2018-11-23T16:06:06.948Z,3.02
2018-11-23T16:08:36.339Z,2.91
2018-11-23T16:11:06.755Z,2.85
2018-11-23T16:13:36.193Z,2.86
2018-11-23T16:16:06.124Z,2.92
2018-11-23T16:18:35.612Z,2.79
2018-11-23T16:21:05.924Z,2.78
2018-11-23T16:23:35.329Z,2.71
2018-11-23T16:26:05.223Z,2.80
2018-11-23T16:28:34.956Z,2.75
2018-11-23T16:31:05.108Z,2.66
2018-11-23T16:33:35.235Z,2.58
2018-11-23T16:36:05.117Z,2.52
2018-11-23T16:38:34.659Z,2.58
2018-11-23T16:41:04.089Z,2.49
2018-11-23T16:43:33.530Z,2.43
2018-11-23T16:46:03.113Z,2.33
2018-11-23T16:48:32.941Z,2.24
2018-11-23T16:51:02.756Z,2.26
2018-11-23T16:53:32.596Z,2.26
2018-11-23T16:56:02.537Z,2.22
2018-11-23T16:58:32.422Z,2.21
2018-11-23T17:01:02.339Z,2.09
2018-11-23T17:03:32.190Z,2.06
2018-11-23T17:06:02.108Z,2.00
2018-11-23T17:08:32.252Z,2.08
2018-11-23T17:11:01.776Z,2.15
2018-11-23T17:13:31.519Z,2.18
2018-11-23T17:16:01.347Z,2.13
2018-11-23T17:18:31.047Z,2.11
2018-11-23T17:21:00.939Z,2.02
2018-11-23T17:23:30.781Z,2.00
2018-11-23T17:26:00.933Z,2.01
2018-11-23T17:28:30.844Z,1.99
2018-11-23T17:31:00.788Z,1.95
2018-11-23T17:33:30.291Z,1.88
2018-11-23T17:36:00.166Z,1.83
2018-11-23T17:38:30.164Z,1.85
2018-11-23T17:41:00.646Z,1.73
2018-11-23T17:43:30.697Z,1.82
2018-11-23T17:46:01.149Z,1.86
2018-11-23T17:48:31.785Z,1.81
2018-11-23T17:51:01.652Z,1.72
2018-11-23T17:53:32.120Z,1.73
2018-11-23T18:00:22.864Z,1.57
2018-11-23T18:03:12.399Z,1.50
2018-11-23T18:05:50.848Z,1.40
2018-11-23T18:08:22.744Z,1.37
2018-11-23T18:10:58.877Z,1.45
2018-11-23T18:13:47.056Z,1.59
2018-11-23T18:16:18.220Z,1.63
2018-11-23T18:18:48.647Z,1.48
2018-11-23T18:21:36.158Z,1.66
2018-11-23T18:24:08.497Z,1.61
2018-11-23T18:26:39.850Z,1.53
2018-11-23T18:29:19.179Z,1.47
2018-11-23T18:31:49.221Z,1.47
2018-11-23T18:34:19.964Z,1.55
2018-11-23T18:36:53.063Z,1.51
2018-11-23T18:39:24.026Z,1.41
2018-11-23T18:41:55.800Z,1.35
2018-11-23T18:44:26.110Z,1.37
2018-11-23T18:46:56.387Z,1.33
2018-11-23T18:49:26.941Z,1.30
2018-11-23T18:51:57.981Z,1.17
2018-11-23T18:54:28.068Z,1.06
2018-11-23T18:56:58.505Z,0.95
2018-11-23T18:59:28.634Z,0.87
2018-11-23T19:01:58.807Z,0.83
2018-11-23T19:04:51.231Z,0.77
2018-11-23T19:07:22.059Z,0.69
2018-11-23T19:09:52.555Z,0.67
2018-11-23T19:12:23.084Z,0.64
2018-11-23T19:14:53.742Z,0.59
2018-11-23T19:17:24.383Z,0.56
2018-11-23T19:19:54.645Z,0.54
2018-11-23T19:22:24.842Z,0.51
2018-11-23T19:24:54.890Z,0.46
2018-11-23T19:27:24.772Z,0.42
2018-11-23T19:29:55.620Z,0.45
2018-11-23T19:32:25.691Z,0.51
2018-11-23T19:34:56.058Z,0.56
2018-11-23T19:37:26.277Z,0.61
2018-11-23T19:39:56.368Z,0.69
2018-11-23T19:42:26.262Z,0.69
2018-11-23T19:44:57.079Z,0.66
2018-11-23T19:47:27.422Z,0.62
2018-11-23T19:49:57.330Z,0.58
2018-11-23T19:52:27.213Z,0.54
2018-11-23T19:54:57.122Z,0.47
2018-11-23T19:57:27.400Z,0.46
2018-11-23T19:59:57.599Z,0.38
2018-11-23T20:02:27.567Z,0.35
2018-11-23T20:04:57.394Z,0.35
2018-11-23T20:07:27.256Z,0.31
2018-11-23T20:09:57.118Z,0.26
2018-11-23T20:12:27.282Z,0.28
2018-11-23T20:14:57.652Z,0.26
2018-11-23T20:17:28.344Z,0.25
2018-11-23T20:19:58.332Z,0.22
2018-11-23T20:22:28.240Z,0.26
2018-11-23T20:24:58.872Z,0.26
2018-11-23T20:27:30.133Z,0.29
2018-11-23T20:30:00.166Z,0.32
2018-11-23T20:32:30.607Z,0.32
2018-11-23T20:35:00.742Z,0.39
2018-11-23T20:37:30.961Z,0.47
2018-11-23T20:40:00.915Z,0.45
2018-11-23T20:42:30.874Z,0.34
2018-11-23T20:45:02.004Z,0.39
2018-11-23T20:47:34.090Z,0.37
2018-11-23T20:50:04.154Z,0.26
2018-11-23T20:52:34.242Z,0.29
2018-11-23T20:55:04.943Z,0.28
2018-11-23T20:57:39.400Z,0.19
2018-11-23T21:00:16.526Z,0.08
2018-11-23T21:02:47.753Z,0.12
2018-11-23T21:05:21.047Z,0.24
2018-11-23T21:07:52.337Z,0.21
2018-11-23T21:10:26.773Z,0.31
2018-11-23T21:12:58.333Z,0.31
2018-11-23T21:15:33.490Z,0.35
2018-11-23T21:18:05.742Z,0.31
2018-11-23T21:20:36.107Z,0.26
2018-11-23T22:10:31.550Z,-0.07
2018-11-23T22:13:37.114Z,0.02
2018-11-23T22:16:36.622Z,0.00
